Federal Oshima — VRVY8 — position and weather

sailwx.info

Track history (hours):
 
Tides and Currents Weather Stations Pressure Air Temp Water Temp Dewpoint Dewpoint Depression Visibility Wind Speed Wind Dir Waves Ship Positions

Federal Oshima

Last reported at 2016-May-21 09:20 UTC. Time now 2016-May-28 03:57 UTC.
Position N 58°44' W 004°31'.

Length 200 m; draft 10.6 m.

Type: Cargo ship. MMSI: 477675000.

Date/timePositionNaut miles runAvg speedWind from/ knotsBaromVisibWave heightAir tempDewpointWater temp
2016-May-21 09:20N 58°44' W 004°31'2 2.3
2016-May-21 08:23N 58°43' W 004°27'8 9.9
2016-May-21 07:33N 58°43' W 004°11'1212.3
2016-May-21 06:33N 58°43' W 003°48'1312.8
2016-May-21 05:33N 58°43' W 003°23'1312.8
2016-May-21 04:33N 58°40' W 002°59'1312.5
2016-May-21 03:33N 58°34' W 002°38'29912.0
2016-May-20 02:31N 57°33' E 006°36'1513.1
2016-May-20 01:22N 57°33' E 007°04'10413.0
2016-May-19 17:23N 57°50' E 010°16'1113.0
2016-May-19 16:33N 57°50' E 010°36'1212.2
2016-May-19 15:33N 57°46' E 010°58'1010.0
2016-May-19 14:33N 57°39' E 011°10'1313.0
2016-May-19 13:34N 57°29' E 011°26'1313.2
2016-May-19 12:34N 57°16' E 011°34'1313.3
2016-May-19 11:33N 57°04' E 011°42'1313.4
2016-May-19 10:33N 56°51' E 011°50'1212.0
2016-May-19 09:33N 56°39' E 011°47'1313.2
2016-May-19 08:33N 56°28' E 011°35'1312.7
2016-May-19 07:32N 56°17' E 011°23'3812.2
2016-May-19 04:23N 55°44' E 010°48'2111.7
2016-May-19 02:33N 55°24' E 011°01'1211.8
2016-May-19 01:32N 55°12' E 011°05'1111.3
2016-May-19 00:33N 55°01' E 010°59'1211.6
2016-May-18 23:33N 54°51' E 010°50'1111.1
2016-May-18 22:33N 54°40' E 010°49'1111.0
2016-May-18 21:33N 54°36' E 011°07'1312.7
2016-May-18 20:33N 54°31' E 011°27'1313.0
2016-May-18 19:33N 54°26' E 011°47'10 9.8
2016-May-18 18:33N 54°22' E 012°03'1010.2
2016-May-18 17:33N 54°12' E 012°05'3 1.3
2016-May-18 15:22N 54°09' E 012°07'0 0.0
2016-May-18 14:31N 54°09' E 012°07'0 0.0
2016-May-18 13:07N 54°09' E 012°07'0 0.0
2016-May-18 12:31N 54°09' E 012°07'0 0.0
2016-May-18 11:07N 54°09' E 012°07'0 0.0
2016-May-18 08:28N 54°09' E 012°07'0 0.0
2016-May-18 07:31N 54°09' E 012°07'0 0.0
2016-May-18 06:28N 54°09' E 012°07'0 0.0
2016-May-18 04:25N 54°09' E 012°07'0 0.0
2016-May-17 21:10N 54°09' E 012°07'0 0.0
2016-May-17 20:19N 54°09' E 012°07'0 0.0
2016-May-17 18:31N 54°09' E 012°07'0 0.0
2016-May-17 15:31N 54°09' E 012°07'0 0.0
2016-May-17 14:28N 54°09' E 012°07'0 0.0
2016-May-17 12:28N 54°09' E 012°07'0 0.0
2016-May-17 11:13N 54°09' E 012°07'0 0.0
2016-May-17 10:07N 54°09' E 012°07'0 0.0
2016-May-17 08:19N 54°09' E 012°07'0 0.0
2016-May-17 07:13N 54°09' E 012°07'0 0.0
2016-May-17 06:31N 54°09' E 012°07'0 0.0
2016-May-17 03:28N 54°09' E 012°07'0 0.0
2016-May-17 02:28N 54°09' E 012°07'0 0.0
2016-May-17 01:28N 54°09' E 012°07'0 0.0
2016-May-16 22:28N 54°09' E 012°07'0 0.0
2016-May-16 20:31N 54°09' E 012°07'0 0.0
2016-May-16 19:13N 54°09' E 012°07'0 0.0
2016-May-16 18:26N 54°09' E 012°07'5 4.8
2016-May-16 17:26N 54°14' E 012°04'0 0.4
2016-May-16 16:33N 54°14' E 012°03'1010.3
2016-May-16 15:33N 54°21' E 011°52'1414.1
2016-May-16 14:33N 54°29' E 011°31'1414.0
2016-May-16 13:34N 54°35' E 011°10'1313.4
2016-May-16 12:33N 54°44' E 010°52'1313.5
2016-May-16 11:33N 54°57' E 010°57'1313.4
2016-May-16 10:33N 55°10' E 011°03'1110.8
2016-May-16 09:33N 55°21' E 011°02'3812.2
2016-May-16 06:26N 55°59' E 011°01'1413.6
2016-May-16 05:23N 56°11' E 011°16'2714.1
2016-May-16 03:26N 56°34' E 011°41'1213.4
2016-May-16 02:33N 56°45' E 011°51'1110.8
2016-May-16 01:33N 56°55' E 011°46'1211.7
2016-May-16 00:33N 57°06' E 011°39'10 9.6
2016-May-15 23:33N 57°15' E 011°33'7 6.8
2016-May-15 22:33N 57°21' E 011°29'9 9.0
2016-May-15 21:33N 57°29' E 011°21'9 8.7
2016-May-15 20:33N 57°35' E 011°09'9 8.7
2016-May-15 19:33N 57°41' E 010°57'9 8.6
2016-May-15 18:33N 57°47' E 010°45'7 7.4
2016-May-15 17:33N 57°52' E 010°35'9 9.2
2016-May-15 16:33N 57°58' E 010°21'9 9.5
2016-May-15 15:33N 57°57' E 010°03'7 7.0
2016-May-15 14:33N 57°55' E 009°51'228 5.7
2016-May-13 22:21N 54°29' E 006°51'8 9.8
2016-May-13 21:33N 54°25' E 007°03'1110.8
2016-May-13 20:33N 54°19' E 007°18'9 9.2
2016-May-13 19:33N 54°14' E 007°31'1211.5
2016-May-13 18:33N 54°08' E 007°48'1111.4
2016-May-13 17:33N 54°01' E 008°04'1111.5
2016-May-13 16:33N 53°59' E 008°23'10 9.9
2016-May-13 15:33N 53°56' E 008°39'8 8.4
2016-May-13 14:34N 53°50' E 008°49'10 9.8
2016-May-13 13:33N 53°53' E 009°06'1110.7
2016-May-13 12:34N 53°49' E 009°22'1413.8
2016-May-13 11:33N 53°37' E 009°34'1211.6
2016-May-13 10:34N 53°33' E 009°52'4 3.7
2016-May-13 09:33N 53°32' E 009°58'0 0.0
2016-May-13 08:33N 53°32' E 009°58'0 0.0
2016-May-13 07:33N 53°32' E 009°58'0 0.0
2016-May-13 06:33N 53°32' E 009°58'0 0.0
2016-May-13 05:33N 53°32' E 009°58'0 0.0
2016-May-13 04:33N 53°32' E 009°58'0 0.0
2016-May-13 03:33N 53°32' E 009°58'0 0.0
2016-May-13 02:33N 53°32' E 009°58'0 0.0
2016-May-13 01:33N 53°32' E 009°58'0 0.0
2016-May-13 00:33N 53°32' E 009°58'0 0.0
2016-May-12 23:33N 53°32' E 009°58'0 0.0
2016-May-12 22:33N 53°32' E 009°58'0 0.0
2016-May-12 21:33N 53°32' E 009°58'0 0.0
2016-May-12 20:33N 53°32' E 009°58'0 0.0
2016-May-12 19:33N 53°32' E 009°58'0 0.0
2016-May-12 18:33N 53°32' E 009°58'0 0.0
2016-May-12 17:33N 53°32' E 009°58'0 0.0
2016-May-12 16:33N 53°32' E 009°58'0 0.0
2016-May-12 15:33N 53°32' E 009°58'0 0.0
2016-May-12 14:33N 53°32' E 009°58'0 0.0
2016-May-12 13:33N 53°32' E 009°58'0 0.0
2016-May-12 12:33N 53°32' E 009°58'0 0.0
2016-May-12 11:33N 53°32' E 009°58'0 0.0
2016-May-12 10:33N 53°32' E 009°58'0 0.0
2016-May-12 09:33N 53°32' E 009°58'0 0.0
2016-May-12 08:33N 53°32' E 009°58'0 0.0
2016-May-12 07:33N 53°32' E 009°58'0 0.0
2016-May-12 06:33N 53°32' E 009°58'0 0.0
2016-May-12 05:33N 53°32' E 009°58'0 0.0
2016-May-12 04:33N 53°32' E 009°58'0 0.0
2016-May-12 03:33N 53°32' E 009°58'0 0.0
2016-May-12 02:33N 53°32' E 009°58'0 0.0
2016-May-12 01:33N 53°32' E 009°58'0 0.0
2016-May-12 00:33N 53°32' E 009°58'0 0.0
2016-May-11 23:33N 53°32' E 009°58'0 0.0
2016-May-11 22:33N 53°32' E 009°58'0 0.0
2016-May-11 21:33N 53°32' E 009°58'0 0.0
2016-May-11 20:33N 53°32' E 009°58'0 0.0
2016-May-11 19:33N 53°32' E 009°58'0 0.0
2016-May-11 18:33N 53°32' E 009°58'0 0.0
2016-May-11 17:33N 53°32' E 009°58'0 0.0
2016-May-11 16:33N 53°32' E 009°58'0 0.0
2016-May-11 15:33N 53°32' E 009°58'5 4.6
2016-May-11 14:34N 53°33' E 009°51'1110.7
2016-May-11 13:34N 53°37' E 009°34'1312.5
2016-May-11 12:34N 53°47' E 009°23'1110.9
2016-May-11 11:33N 53°53' E 009°07'10 9.6
2016-May-11 10:33N 53°50' E 008°51'9 9.1
2016-May-11 09:34N 53°56' E 008°39'  
Track history (hours):
 
Tides and Currents Weather Stations Pressure Air Temp Water Temp Dewpoint Dewpoint Depression Visibility Wind Speed Wind Dir Waves Ship Positions

Federal Oshima

Last reported at 2016-May-21 09:20 UTC. Time now 2016-May-28 03:57 UTC.
Position N 58°44' W 004°31'.

Length 200 m; draft 10.6 m.

Type: Cargo ship. MMSI: 477675000.

Date/timePositionNaut miles runAvg speedWind from/ knotsBaromVisibWave heightAir tempDewpointWater temp
2016-May-21 09:20N 58°44' W 004°31'2 2.3
2016-May-21 08:23N 58°43' W 004°27'8 9.9
2016-May-21 07:33N 58°43' W 004°11'1212.3
2016-May-21 06:33N 58°43' W 003°48'1312.8
2016-May-21 05:33N 58°43' W 003°23'1312.8
2016-May-21 04:33N 58°40' W 002°59'1312.5
2016-May-21 03:33N 58°34' W 002°38'29912.0
2016-May-20 02:31N 57°33' E 006°36'1513.1
2016-May-20 01:22N 57°33' E 007°04'10413.0
2016-May-19 17:23N 57°50' E 010°16'1113.0
2016-May-19 16:33N 57°50' E 010°36'1212.2
2016-May-19 15:33N 57°46' E 010°58'1010.0
2016-May-19 14:33N 57°39' E 011°10'1313.0
2016-May-19 13:34N 57°29' E 011°26'1313.2
2016-May-19 12:34N 57°16' E 011°34'1313.3
2016-May-19 11:33N 57°04' E 011°42'1313.4
2016-May-19 10:33N 56°51' E 011°50'1212.0
2016-May-19 09:33N 56°39' E 011°47'1313.2
2016-May-19 08:33N 56°28' E 011°35'1312.7
2016-May-19 07:32N 56°17' E 011°23'3812.2
2016-May-19 04:23N 55°44' E 010°48'2111.7
2016-May-19 02:33N 55°24' E 011°01'1211.8
2016-May-19 01:32N 55°12' E 011°05'1111.3
2016-May-19 00:33N 55°01' E 010°59'1211.6
2016-May-18 23:33N 54°51' E 010°50'1111.1
2016-May-18 22:33N 54°40' E 010°49'1111.0
2016-May-18 21:33N 54°36' E 011°07'1312.7
2016-May-18 20:33N 54°31' E 011°27'1313.0
2016-May-18 19:33N 54°26' E 011°47'10 9.8
2016-May-18 18:33N 54°22' E 012°03'1010.2
2016-May-18 17:33N 54°12' E 012°05'3 1.3
2016-May-18 15:22N 54°09' E 012°07'0 0.0
2016-May-18 14:31N 54°09' E 012°07'0 0.0
2016-May-18 13:07N 54°09' E 012°07'0 0.0
2016-May-18 12:31N 54°09' E 012°07'0 0.0
2016-May-18 11:07N 54°09' E 012°07'0 0.0
2016-May-18 08:28N 54°09' E 012°07'0 0.0
2016-May-18 07:31N 54°09' E 012°07'0 0.0
2016-May-18 06:28N 54°09' E 012°07'0 0.0
2016-May-18 04:25N 54°09' E 012°07'0 0.0
2016-May-17 21:10N 54°09' E 012°07'0 0.0
2016-May-17 20:19N 54°09' E 012°07'0 0.0
2016-May-17 18:31N 54°09' E 012°07'0 0.0
2016-May-17 15:31N 54°09' E 012°07'0 0.0
2016-May-17 14:28N 54°09' E 012°07'0 0.0
2016-May-17 12:28N 54°09' E 012°07'0 0.0
2016-May-17 11:13N 54°09' E 012°07'0 0.0
2016-May-17 10:07N 54°09' E 012°07'0 0.0
2016-May-17 08:19N 54°09' E 012°07'0 0.0
2016-May-17 07:13N 54°09' E 012°07'0 0.0
2016-May-17 06:31N 54°09' E 012°07'0 0.0
2016-May-17 03:28N 54°09' E 012°07'0 0.0
2016-May-17 02:28N 54°09' E 012°07'0 0.0
2016-May-17 01:28N 54°09' E 012°07'0 0.0
2016-May-16 22:28N 54°09' E 012°07'0 0.0
2016-May-16 20:31N 54°09' E 012°07'0 0.0
2016-May-16 19:13N 54°09' E 012°07'0 0.0
2016-May-16 18:26N 54°09' E 012°07'5 4.8
2016-May-16 17:26N 54°14' E 012°04'0 0.4
2016-May-16 16:33N 54°14' E 012°03'1010.3
2016-May-16 15:33N 54°21' E 011°52'1414.1
2016-May-16 14:33N 54°29' E 011°31'1414.0
2016-May-16 13:34N 54°35' E 011°10'1313.4
2016-May-16 12:33N 54°44' E 010°52'1313.5
2016-May-16 11:33N 54°57' E 010°57'1313.4
2016-May-16 10:33N 55°10' E 011°03'1110.8
2016-May-16 09:33N 55°21' E 011°02'3812.2
2016-May-16 06:26N 55°59' E 011°01'1413.6
2016-May-16 05:23N 56°11' E 011°16'2714.1
2016-May-16 03:26N 56°34' E 011°41'1213.4
2016-May-16 02:33N 56°45' E 011°51'1110.8
2016-May-16 01:33N 56°55' E 011°46'1211.7
2016-May-16 00:33N 57°06' E 011°39'10 9.6
2016-May-15 23:33N 57°15' E 011°33'7 6.8
2016-May-15 22:33N 57°21' E 011°29'9 9.0
2016-May-15 21:33N 57°29' E 011°21'9 8.7
2016-May-15 20:33N 57°35' E 011°09'9 8.7
2016-May-15 19:33N 57°41' E 010°57'9 8.6
2016-May-15 18:33N 57°47' E 010°45'7 7.4
2016-May-15 17:33N 57°52' E 010°35'9 9.2
2016-May-15 16:33N 57°58' E 010°21'9 9.5
2016-May-15 15:33N 57°57' E 010°03'7 7.0
2016-May-15 14:33N 57°55' E 009°51'228 5.7
2016-May-13 22:21N 54°29' E 006°51'8 9.8
2016-May-13 21:33N 54°25' E 007°03'1110.8
2016-May-13 20:33N 54°19' E 007°18'9 9.2
2016-May-13 19:33N 54°14' E 007°31'1211.5
2016-May-13 18:33N 54°08' E 007°48'1111.4
2016-May-13 17:33N 54°01' E 008°04'1111.5
2016-May-13 16:33N 53°59' E 008°23'10 9.9
2016-May-13 15:33N 53°56' E 008°39'8 8.4
2016-May-13 14:34N 53°50' E 008°49'10 9.8
2016-May-13 13:33N 53°53' E 009°06'1110.7
2016-May-13 12:34N 53°49' E 009°22'1413.8
2016-May-13 11:33N 53°37' E 009°34'1211.6
2016-May-13 10:34N 53°33' E 009°52'4 3.7
2016-May-13 09:33N 53°32' E 009°58'0 0.0
2016-May-13 08:33N 53°32' E 009°58'0 0.0
2016-May-13 07:33N 53°32' E 009°58'0 0.0
2016-May-13 06:33N 53°32' E 009°58'0 0.0
2016-May-13 05:33N 53°32' E 009°58'0 0.0
2016-May-13 04:33N 53°32' E 009°58'0 0.0
2016-May-13 03:33N 53°32' E 009°58'0 0.0
2016-May-13 02:33N 53°32' E 009°58'0 0.0
2016-May-13 01:33N 53°32' E 009°58'0 0.0
2016-May-13 00:33N 53°32' E 009°58'0 0.0
2016-May-12 23:33N 53°32' E 009°58'0 0.0
2016-May-12 22:33N 53°32' E 009°58'0 0.0
2016-May-12 21:33N 53°32' E 009°58'0 0.0
2016-May-12 20:33N 53°32' E 009°58'0 0.0
2016-May-12 19:33N 53°32' E 009°58'0 0.0
2016-May-12 18:33N 53°32' E 009°58'0 0.0
2016-May-12 17:33N 53°32' E 009°58'0 0.0
2016-May-12 16:33N 53°32' E 009°58'0 0.0
2016-May-12 15:33N 53°32' E 009°58'0 0.0
2016-May-12 14:33N 53°32' E 009°58'0 0.0
2016-May-12 13:33N 53°32' E 009°58'0 0.0
2016-May-12 12:33N 53°32' E 009°58'0 0.0
2016-May-12 11:33N 53°32' E 009°58'0 0.0
2016-May-12 10:33N 53°32' E 009°58'0 0.0
2016-May-12 09:33N 53°32' E 009°58'0 0.0
2016-May-12 08:33N 53°32' E 009°58'0 0.0
2016-May-12 07:33N 53°32' E 009°58'0 0.0
2016-May-12 06:33N 53°32' E 009°58'0 0.0
2016-May-12 05:33N 53°32' E 009°58'0 0.0
2016-May-12 04:33N 53°32' E 009°58'0 0.0
2016-May-12 03:33N 53°32' E 009°58'0 0.0
2016-May-12 02:33N 53°32' E 009°58'0 0.0
2016-May-12 01:33N 53°32' E 009°58'0 0.0
2016-May-12 00:33N 53°32' E 009°58'0 0.0
2016-May-11 23:33N 53°32' E 009°58'0 0.0
2016-May-11 22:33N 53°32' E 009°58'0 0.0
2016-May-11 21:33N 53°32' E 009°58'0 0.0
2016-May-11 20:33N 53°32' E 009°58'0 0.0
2016-May-11 19:33N 53°32' E 009°58'0 0.0
2016-May-11 18:33N 53°32' E 009°58'0 0.0
2016-May-11 17:33N 53°32' E 009°58'0 0.0
2016-May-11 16:33N 53°32' E 009°58'0 0.0
2016-May-11 15:33N 53°32' E 009°58'5 4.6
2016-May-11 14:34N 53°33' E 009°51'1110.7
2016-May-11 13:34N 53°37' E 009°34'1312.5
2016-May-11 12:34N 53°47' E 009°23'1110.9
2016-May-11 11:33N 53°53' E 009°07'10 9.6
2016-May-11 10:33N 53°50' E 008°51'9 9.1
2016-May-11 09:34N 53°56' E 008°39'  

Dump ship's entire track history